Gold Hill, OR

7:29 PM PDT on October 21, 2014 (GMT -0700)
Southwest Medford (CW2551) | Change Station
CLOSE
Current Station
Personal Weather Station
Location: Medford, OR
Elevation: 1472 ft
Nearby Weather Stations

Elev 1472 ft 42.31 °N, 122.90 °W | Updated 11 seconds ago

Overcast
Overcast
52.0 °F
Feels Like 52.0 °F
N
2.3
Wind Variable Wind from ESE
Gusts 2.3 mph

Today
High -- | Low -- °F
--% Chance of Precip.
Yesterday
High -- | Low -- °F
Precip. -- in
7:32 AM 6:20 PM
Waning Crescent, 3% visible
Pressure 30.00 in
Visibility 10.0 miles
Clouds Scattered Clouds 6000 ft
Mostly Cloudy 12000 ft
Dew Point 45 °F
Humidity 78%
Rainfall 0.00 in
Snow Depth Not available.
UV 0.0 out of 12
Pollen 1.20 out of 12
Air Quality Not available.
Flu Activity Sporadic
METAR KMFR 220153Z 00000KT 10SM SCT060 BKN120 14/09 A3000 RMK AO2 SLP159 T01440089

More Conditions Fewer Conditions

Pressure 30.00 in
Visibility 10.0 miles
Clouds Scattered Clouds 6000 ft
Mostly Cloudy 12000 ft
Dew Point 45 °F
Humidity 78%
Rainfall 0.00 in
Snow Depth Not available.
UV 0.0 out of 12
Pollen 1.20 out of 12
Air Quality Not available.
Flu Activity Sporadic
METAR KMFR 220153Z 00000KT 10SM SCT060 BKN120 14/09 A3000 RMK AO2 SLP159 T01440089

More Conditions Fewer Conditions

10-Day Weather Forecast

Almanac

Astronomy

Oct. 21, 2014 Rise Set
Actual Time 7:32 AM PDT 6:20 PM PDT
Civil Twilight 7:03 AM PDT 6:49 PM PDT
Nautical Twilight 6:31 AM PDT 7:22 PM PDT
Astronomical Twilight 5:58 AM PDT 7:54 PM PDT
Moon 5:19 AM PDT (10/21) 5:19 PM PDT (10/21)
Length of Visible Light 11h 45m
Length of Day
10h 48m
Tomorrow will be 2m 42s shorter.
Waning Crescent, 3% of the Moon is Illuminated
Today
Waning Crescent
Oct 23
New
Oct 30
First Quarter
Nov 6
Full
Nov 14
Last Quarter

Today's Extremes

State Highs State Lows

Community

WunderPhotos

Upload Photos

1,763,858 photos uploaded!

Nearby

Snow Depth

Station Depth Elevation
Bigelow Camp 0 in 5120 ft
Big Red Mountain 0 in 6250 ft
Fish Lake 0 in 4665 ft
Billie Creek Divide 0 in 5300 ft
Sevenmile Marsh 0 in 6200 ft

Earthquake Activity

City Distance Mag. Time & Date
Crescent City, California 111 miles 2.6 1:22 AM PDT
2014-10-21
Minimum magnitude displayed is 2.5.

Coastal Water Temperatures

Place Temperature
No Stations Reporting

Nearby Weather Stations